sensor_id;sensor_type;location;lat;lon;timestamp;pressure;altitude;pressure_sealevel;temperature;humidity
25232;BME280;13176;51.140;6.290;2023-02-13T00:01:38;102892.75;;;9.74;76.43
25232;BME280;13176;51.140;6.290;2023-02-13T00:04:08;102898.50;;;9.95;76.09
25232;BME280;13176;51.140;6.290;2023-02-13T00:06:44;103013.84;;;10.51;76.30
25232;BME280;13176;51.140;6.290;2023-02-13T00:09:29;102875.53;;;9.81;76.01
25232;BME280;13176;51.140;6.290;2023-02-13T00:11:57;103012.19;;;10.56;75.85
25232;BME280;13176;51.140;6.290;2023-02-13T00:14:24;102797.31;;;9.44;75.70
25232;BME280;13176;51.140;6.290;2023-02-13T00:16:57;102813.78;;;9.44;76.06
25232;BME280;13176;51.140;6.290;2023-02-13T00:19:24;102783.97;;;9.33;76.09
25232;BME280;13176;51.140;6.290;2023-02-13T00:21:51;102782.94;;;9.25;76.24
25232;BME280;13176;51.140;6.290;2023-02-13T00:24:18;102835.03;;;9.59;76.22
25232;BME280;13176;51.140;6.290;2023-02-13T00:26:45;102849.09;;;9.66;76.07
25232;BME280;13176;51.140;6.290;2023-02-13T00:29:13;102869.50;;;9.82;76.21
25232;BME280;13176;51.140;6.290;2023-02-13T00:31:40;102791.00;;;9.36;76.34
25232;BME280;13176;51.140;6.290;2023-02-13T00:34:10;102767.41;;;9.30;75.83
25232;BME280;13176;51.140;6.290;2023-02-13T00:36:43;102850.25;;;9.77;75.92
25232;BME280;13176;51.140;6.290;2023-02-13T00:39:16;102784.13;;;9.39;75.74
25232;BME280;13176;51.140;6.290;2023-02-13T00:41:44;102781.59;;;9.41;75.83
25232;BME280;13176;51.140;6.290;2023-02-13T00:44:11;102827.31;;;9.64;75.87
25232;BME280;13176;51.140;6.290;2023-02-13T00:46:38;102838.97;;;9.78;76.05
25232;BME280;13176;51.140;6.290;2023-02-13T00:49:08;102837.22;;;9.78;75.79
25232;BME280;13176;51.140;6.290;2023-02-13T00:51:34;102762.34;;;9.36;75.70
25232;BME280;13176;51.140;6.290;2023-02-13T00:54:04;102771.84;;;9.34;75.78
25232;BME280;13176;51.140;6.290;2023-02-13T00:56:32;102785.88;;;9.39;75.48
25232;BME280;13176;51.140;6.290;2023-02-13T00:58:59;102728.78;;;9.14;75.75
25232;BME280;13176;51.140;6.290;2023-02-13T01:01:29;102772.78;;;9.36;75.75
25232;BME280;13176;51.140;6.290;2023-02-13T01:03:56;102839.44;;;9.62;76.12
25232;BME280;13176;51.140;6.290;2023-02-13T01:06:23;102894.22;;;9.99;76.11
25232;BME280;13176;51.140;6.290;2023-02-13T01:08:51;102849.13;;;9.67;75.99
25232;BME280;13176;51.140;6.290;2023-02-13T01:11:18;102755.06;;;9.23;75.98
25232;BME280;13176;51.140;6.290;2023-02-13T01:13:46;102719.81;;;9.02;76.06
25232;BME280;13176;51.140;6.290;2023-02-13T01:16:16;102830.84;;;9.66;76.12
25232;BME280;13176;51.140;6.290;2023-02-13T01:18:50;102830.03;;;9.68;75.89
25232;BME280;13176;51.140;6.290;2023-02-13T01:21:20;102755.16;;;9.26;75.79
25232;BME280;13176;51.140;6.290;2023-02-13T01:24:04;102875.22;;;10.03;75.73
25232;BME280;13176;51.140;6.290;2023-02-13T01:26:31;102802.16;;;9.64;75.79
25232;BME280;13176;51.140;6.290;2023-02-13T01:28:58;102812.84;;;9.76;75.69
25232;BME280;13176;51.140;6.290;2023-02-13T01:31:25;102752.38;;;9.18;75.69
25232;BME280;13176;51.140;6.290;2023-02-13T01:33:55;102770.84;;;9.29;76.08
25232;BME280;13176;51.140;6.290;2023-02-13T01:36:23;102899.56;;;10.02;76.39
25232;BME280;13176;51.140;6.290;2023-02-13T01:38:55;102810.53;;;9.53;76.16
25232;BME280;13176;51.140;6.290;2023-02-13T01:41:23;102841.88;;;9.56;76.34
25232;BME280;13176;51.140;6.290;2023-02-13T01:43:58;102768.84;;;9.19;76.57
25232;BME280;13176;51.140;6.290;2023-02-13T01:46:33;102777.50;;;9.18;76.50
25232;BME280;13176;51.140;6.290;2023-02-13T01:49:14;102728.50;;;9.02;76.35
25232;BME280;13176;51.140;6.290;2023-02-13T01:51:45;102828.56;;;9.44;76.81
25232;BME280;13176;51.140;6.290;2023-02-13T01:54:23;102763.13;;;8.98;77.01
25232;BME280;13176;51.140;6.290;2023-02-13T01:57:04;102766.66;;;9.00;76.83
25232;BME280;13176;51.140;6.290;2023-02-13T01:59:41;102747.41;;;8.95;76.63
25232;BME280;13176;51.140;6.290;2023-02-13T02:02:11;102747.25;;;8.89;76.96
25232;BME280;13176;51.140;6.290;2023-02-13T02:04:45;102759.09;;;8.78;77.06
25232;BME280;13176;51.140;6.290;2023-02-13T02:07:19;102743.88;;;8.61;77.25
25232;BME280;13176;51.140;6.290;2023-02-13T02:09:57;102748.13;;;8.57;77.35
25232;BME280;13176;51.140;6.290;2023-02-13T02:15:05;102761.16;;;8.59;77.55
25232;BME280;13176;51.140;6.290;2023-02-13T02:24:33;102951.06;;;9.78;77.49
25232;BME280;13176;51.140;6.290;2023-02-13T02:29:56;102961.34;;;9.72;77.45
25232;BME280;13176;51.140;6.290;2023-02-13T02:32:54;102751.41;;;8.50;77.33
25232;BME280;13176;51.140;6.290;2023-02-13T02:35:48;102816.78;;;8.93;77.72
25232;BME280;13176;51.140;6.290;2023-02-13T02:38:42;102757.25;;;8.43;77.75
25232;BME280;13176;51.140;6.290;2023-02-13T02:41:20;102809.66;;;8.86;77.85
25232;BME280;13176;51.140;6.290;2023-02-13T02:44:14;102742.75;;;8.51;77.80
25232;BME280;13176;51.140;6.290;2023-02-13T02:49:40;102735.69;;;8.47;77.82
25232;BME280;13176;51.140;6.290;2023-02-13T02:52:42;102759.94;;;8.46;77.74
25232;BME280;13176;51.140;6.290;2023-02-13T02:55:30;102756.19;;;8.35;77.92
25232;BME280;13176;51.140;6.290;2023-02-13T02:58:11;102819.78;;;8.77;78.07
25232;BME280;13176;51.140;6.290;2023-02-13T03:01:01;102824.16;;;8.78;78.01
25232;BME280;13176;51.140;6.290;2023-02-13T03:03:49;102773.69;;;8.42;77.86
25232;BME280;13176;51.140;6.290;2023-02-13T03:06:39;102766.59;;;8.35;78.06
25232;BME280;13176;51.140;6.290;2023-02-13T03:09:13;102950.19;;;9.45;78.00
25232;BME280;13176;51.140;6.290;2023-02-13T03:12:03;102768.50;;;8.42;77.89
25232;BME280;13176;51.140;6.290;2023-02-13T03:14:49;102743.84;;;8.28;77.93
25232;BME280;13176;51.140;6.290;2023-02-13T03:17:17;102745.34;;;8.20;78.12
25232;BME280;13176;51.140;6.290;2023-02-13T03:20:21;102936.06;;;9.37;78.17
25232;BME280;13176;51.140;6.290;2023-02-13T03:25:50;102936.16;;;9.40;77.96
25232;BME280;13176;51.140;6.290;2023-02-13T03:28:40;102816.03;;;8.66;78.02
25232;BME280;13176;51.140;6.290;2023-02-13T03:34:19;102748.78;;;8.19;78.06
25232;BME280;13176;51.140;6.290;2023-02-13T03:37:02;102734.53;;;8.08;78.03
25232;BME280;13176;51.140;6.290;2023-02-13T03:40:12;102737.03;;;8.05;78.00
25232;BME280;13176;51.140;6.290;2023-02-13T03:42:47;102810.31;;;8.48;78.00
25232;BME280;13176;51.140;6.290;2023-02-13T03:45:21;102785.63;;;8.34;78.31
25232;BME280;13176;51.140;6.290;2023-02-13T03:48:08;102901.84;;;8.94;77.95
25232;BME280;13176;51.140;6.290;2023-02-13T03:50:57;102761.16;;;8.00;78.32
25232;BME280;13176;51.140;6.290;2023-02-13T03:53:27;102792.31;;;8.26;78.01
25232;BME280;13176;51.140;6.290;2023-02-13T03:55:57;102816.84;;;8.34;77.86
25232;BME280;13176;51.140;6.290;2023-02-13T03:58:49;102800.69;;;8.16;77.88
25232;BME280;13176;51.140;6.290;2023-02-13T04:01:36;102737.16;;;7.81;77.92
25232;BME280;13176;51.140;6.290;2023-02-13T04:04:07;102946.13;;;8.94;78.04
25232;BME280;13176;51.140;6.290;2023-02-13T04:07:02;102826.56;;;8.13;77.43
25232;BME280;13176;51.140;6.290;2023-02-13T04:09:30;102858.84;;;8.20;77.67
25232;BME280;13176;51.140;6.290;2023-02-13T04:12:07;102872.66;;;8.17;77.38
25232;BME280;13176;51.140;6.290;2023-02-13T04:14:40;102907.88;;;8.09;77.80
25232;BME280;13176;51.140;6.290;2023-02-13T04:17:20;102958.25;;;8.38;78.42
25232;BME280;13176;51.140;6.290;2023-02-13T04:19:48;102842.94;;;7.57;78.11
25232;BME280;13176;51.140;6.290;2023-02-13T04:22:14;102891.00;;;7.71;78.29
25232;BME280;13176;51.140;6.290;2023-02-13T04:24:40;102876.94;;;7.64;78.48
25232;BME280;13176;51.140;6.290;2023-02-13T04:27:10;102841.00;;;7.26;79.07
25232;BME280;13176;51.140;6.290;2023-02-13T04:29:38;102901.84;;;7.58;79.15
25232;BME280;13176;51.140;6.290;2023-02-13T04:32:04;102970.84;;;7.99;78.48
25232;BME280;13176;51.140;6.290;2023-02-13T04:34:31;102794.09;;;6.95;78.56
25232;BME280;13176;51.140;6.290;2023-02-13T04:36:57;102868.63;;;7.49;77.95
25232;BME280;13176;51.140;6.290;2023-02-13T04:39:24;102818.22;;;7.18;77.80
25232;BME280;13176;51.140;6.290;2023-02-13T04:41:50;102753.03;;;6.84;77.72
25232;BME280;13176;51.140;6.290;2023-02-13T04:44:17;102948.78;;;7.88;77.76
25232;BME280;13176;51.140;6.290;2023-02-13T04:46:43;102809.41;;;7.13;77.36
25232;BME280;13176;51.140;6.290;2023-02-13T04:49:19;102747.41;;;6.72;76.95
25232;BME280;13176;51.140;6.290;2023-02-13T04:51:46;102713.63;;;6.46;76.73
25232;BME280;13176;51.140;6.290;2023-02-13T04:54:12;102771.59;;;6.71;76.91
25232;BME280;13176;51.140;6.290;2023-02-13T04:56:39;102930.69;;;7.67;76.57
25232;BME280;13176;51.140;6.290;2023-02-13T04:59:05;102959.28;;;7.67;76.55
25232;BME280;13176;51.140;6.290;2023-02-13T05:01:32;102791.66;;;6.76;76.88
25232;BME280;13176;51.140;6.290;2023-02-13T05:03:58;102928.28;;;7.46;76.42
25232;BME280;13176;51.140;6.290;2023-02-13T05:06:25;102809.56;;;6.69;76.82
25232;BME280;13176;51.140;6.290;2023-02-13T05:08:52;102855.78;;;7.04;76.71
25232;BME280;13176;51.140;6.290;2023-02-13T05:11:19;102795.75;;;6.70;75.96
25232;BME280;13176;51.140;6.290;2023-02-13T05:13:45;102889.88;;;7.13;76.18
25232;BME280;13176;51.140;6.290;2023-02-13T05:16:12;102952.41;;;7.44;75.97
25232;BME280;13176;51.140;6.290;2023-02-13T05:18:38;102826.53;;;6.61;75.78
25232;BME280;13176;51.140;6.290;2023-02-13T05:21:05;102930.34;;;7.08;76.30
25232;BME280;13176;51.140;6.290;2023-02-13T05:24:08;102959.25;;;7.42;76.51
25232;BME280;13176;51.140;6.290;2023-02-13T05:26:35;102865.72;;;6.92;76.23
25232;BME280;13176;51.140;6.290;2023-02-13T05:29:02;102802.06;;;6.53;75.86
25232;BME280;13176;51.140;6.290;2023-02-13T05:31:52;102939.81;;;7.31;75.50
25232;BME280;13176;51.140;6.290;2023-02-13T05:34:20;102977.41;;;7.40;75.00
25232;BME280;13176;51.140;6.290;2023-02-13T05:36:47;102954.97;;;7.19;75.14
25232;BME280;13176;51.140;6.290;2023-02-13T05:39:14;102852.44;;;6.38;75.32
25232;BME280;13176;51.140;6.290;2023-02-13T05:41:42;102948.56;;;6.86;76.03
25232;BME280;13176;51.140;6.290;2023-02-13T05:44:12;102859.38;;;6.15;76.75
25232;BME280;13176;51.140;6.290;2023-02-13T05:46:40;102710.72;;;5.26;77.53
25232;BME280;13176;51.140;6.290;2023-02-13T05:49:08;102895.19;;;6.47;77.74
25232;BME280;13176;51.140;6.290;2023-02-13T05:51:36;102924.03;;;6.56;78.16
25232;BME280;13176;51.140;6.290;2023-02-13T05:54:02;102948.44;;;6.83;78.57
25232;BME280;13176;51.140;6.290;2023-02-13T05:56:29;102966.31;;;6.99;77.59
25232;BME280;13176;51.140;6.290;2023-02-13T05:58:56;102958.72;;;7.03;76.73
25232;BME280;13176;51.140;6.290;2023-02-13T06:01:23;102921.72;;;6.85;76.95
25232;BME280;13176;51.140;6.290;2023-02-13T06:03:50;102913.66;;;6.78;76.51
25232;BME280;13176;51.140;6.290;2023-02-13T06:06:16;102938.50;;;6.95;77.13
25232;BME280;13176;51.140;6.290;2023-02-13T06:08:43;102759.97;;;5.91;76.76
25232;BME280;13176;51.140;6.290;2023-02-13T06:11:10;102796.44;;;6.19;76.61
25232;BME280;13176;51.140;6.290;2023-02-13T06:13:40;102783.03;;;6.07;76.45
25232;BME280;13176;51.140;6.290;2023-02-13T06:16:21;102853.81;;;6.50;75.80
25232;BME280;13176;51.140;6.290;2023-02-13T06:18:48;102777.91;;;6.09;75.74
25232;BME280;13176;51.140;6.290;2023-02-13T06:21:14;102903.53;;;6.85;75.25
25232;BME280;13176;51.140;6.290;2023-02-13T06:23:41;102834.59;;;6.45;75.69
25232;BME280;13176;51.140;6.290;2023-02-13T06:26:08;102870.50;;;6.58;74.91
25232;BME280;13176;51.140;6.290;2023-02-13T06:28:35;102932.00;;;7.06;75.11
25232;BME280;13176;51.140;6.290;2023-02-13T06:31:02;102833.69;;;6.45;74.95
25232;BME280;13176;51.140;6.290;2023-02-13T06:33:28;102680.84;;;5.56;74.41
25232;BME280;13176;51.140;6.290;2023-02-13T06:35:55;102691.03;;;5.51;74.83
25232;BME280;13176;51.140;6.290;2023-02-13T06:38:23;102784.41;;;5.98;74.81
25232;BME280;13176;51.140;6.290;2023-02-13T06:40:50;102833.19;;;6.31;75.01
25232;BME280;13176;51.140;6.290;2023-02-13T06:43:19;102801.34;;;6.12;76.13
25232;BME280;13176;51.140;6.290;2023-02-13T06:45:45;102892.56;;;6.69;75.14
25232;BME280;13176;51.140;6.290;2023-02-13T06:48:18;102909.78;;;6.67;75.20
25232;BME280;13176;51.140;6.290;2023-02-13T06:50:44;102927.19;;;6.70;75.10
25232;BME280;13176;51.140;6.290;2023-02-13T06:53:11;102943.38;;;6.86;74.87
25232;BME280;13176;51.140;6.290;2023-02-13T06:55:37;102852.69;;;6.44;74.83
25232;BME280;13176;51.140;6.290;2023-02-13T06:58:07;102904.56;;;6.67;74.72
25232;BME280;13176;51.140;6.290;2023-02-13T07:00:33;102785.56;;;6.06;74.57
25232;BME280;13176;51.140;6.290;2023-02-13T07:03:02;102945.56;;;6.99;75.25
25232;BME280;13176;51.140;6.290;2023-02-13T07:05:29;102941.16;;;6.96;75.37
25232;BME280;13176;51.140;6.290;2023-02-13T07:07:56;102910.94;;;6.75;75.32
25232;BME280;13176;51.140;6.290;2023-02-13T07:10:22;102952.63;;;7.03;74.78
25232;BME280;13176;51.140;6.290;2023-02-13T07:12:49;102913.22;;;6.89;74.61
25232;BME280;13176;51.140;6.290;2023-02-13T07:15:31;102923.50;;;7.10;74.63
25232;BME280;13176;51.140;6.290;2023-02-13T07:18:01;102927.38;;;7.21;74.86
25232;BME280;13176;51.140;6.290;2023-02-13T07:20:28;102920.81;;;7.32;76.57
25232;BME280;13176;51.140;6.290;2023-02-13T07:22:59;102914.19;;;7.40;76.70
25232;BME280;13176;51.140;6.290;2023-02-13T07:25:26;102841.25;;;7.09;76.76
25232;BME280;13176;51.140;6.290;2023-02-13T07:27:53;102947.75;;;7.84;76.70
25232;BME280;13176;51.140;6.290;2023-02-13T07:30:19;102832.44;;;7.29;76.74
25232;BME280;13176;51.140;6.290;2023-02-13T07:32:45;102830.44;;;7.45;77.19
25232;BME280;13176;51.140;6.290;2023-02-13T07:35:12;102944.44;;;8.14;77.88
25232;BME280;13176;51.140;6.290;2023-02-13T07:37:38;102698.34;;;6.78;78.27
25232;BME280;13176;51.140;6.290;2023-02-13T07:40:05;102787.66;;;7.36;78.66
25232;BME280;13176;51.140;6.290;2023-02-13T07:42:33;102810.28;;;7.38;79.08
25232;BME280;13176;51.140;6.290;2023-02-13T07:45:07;102821.88;;;7.49;79.40
25232;BME280;13176;51.140;6.290;2023-02-13T07:47:33;102951.28;;;8.37;79.37
25232;BME280;13176;51.140;6.290;2023-02-13T07:50:01;102833.94;;;7.74;79.22
25232;BME280;13176;51.140;6.290;2023-02-13T07:52:31;102949.72;;;8.42;79.84
25232;BME280;13176;51.140;6.290;2023-02-13T07:55:05;102736.31;;;7.26;80.20
25232;BME280;13176;51.140;6.290;2023-02-13T07:57:32;102909.13;;;8.19;80.27
25232;BME280;13176;51.140;6.290;2023-02-13T07:59:58;102978.94;;;8.61;80.79
25232;BME280;13176;51.140;6.290;2023-02-13T08:02:27;102858.41;;;8.06;80.72
25232;BME280;13176;51.140;6.290;2023-02-13T08:04:56;102801.69;;;7.67;81.15
25232;BME280;13176;51.140;6.290;2023-02-13T08:07:23;102963.78;;;8.76;81.87
25232;BME280;13176;51.140;6.290;2023-02-13T08:09:49;102934.06;;;8.68;82.18
25232;BME280;13176;51.140;6.290;2023-02-13T08:12:35;102808.66;;;7.94;82.32
25232;BME280;13176;51.140;6.290;2023-02-13T08:15:02;102976.53;;;8.95;82.43
25232;BME280;13176;51.140;6.290;2023-02-13T08:17:29;102849.34;;;8.20;82.56
25232;BME280;13176;51.140;6.290;2023-02-13T08:19:56;102817.00;;;8.12;82.31
25232;BME280;13176;51.140;6.290;2023-02-13T08:22:22;102969.91;;;9.06;82.44
25232;BME280;13176;51.140;6.290;2023-02-13T08:24:49;102962.94;;;9.05;82.86
25232;BME280;13176;51.140;6.290;2023-02-13T08:27:16;102978.06;;;9.18;82.76
25232;BME280;13176;51.140;6.290;2023-02-13T08:29:42;102789.72;;;7.98;83.47
25232;BME280;13176;51.140;6.290;2023-02-13T08:32:12;102959.75;;;9.15;83.29
25232;BME280;13176;51.140;6.290;2023-02-13T08:34:41;102727.56;;;7.78;83.13
25232;BME280;13176;51.140;6.290;2023-02-13T08:37:08;102723.63;;;7.90;82.06
25232;BME280;13176;51.140;6.290;2023-02-13T08:39:35;102765.91;;;8.14;83.51
25232;BME280;13176;51.140;6.290;2023-02-13T08:42:04;102882.72;;;8.92;83.33
25232;BME280;13176;51.140;6.290;2023-02-13T08:44:42;102762.88;;;8.27;83.94
25232;BME280;13176;51.140;6.290;2023-02-13T08:47:10;102793.19;;;8.56;83.07
25232;BME280;13176;51.140;6.290;2023-02-13T08:49:37;102947.59;;;9.45;82.45
25232;BME280;13176;51.140;6.290;2023-02-13T08:52:04;102726.56;;;8.30;82.77
25232;BME280;13176;51.140;6.290;2023-02-13T08:54:33;102816.75;;;8.92;82.68
25232;BME280;13176;51.140;6.290;2023-02-13T08:57:01;102727.91;;;8.47;81.92
25232;BME280;13176;51.140;6.290;2023-02-13T08:59:30;102901.28;;;9.35;81.79
25232;BME280;13176;51.140;6.290;2023-02-13T09:02:00;102935.19;;;9.69;81.39
25232;BME280;13176;51.140;6.290;2023-02-13T09:04:27;102726.81;;;8.70;81.16
25232;BME280;13176;51.140;6.290;2023-02-13T09:06:54;102733.88;;;8.76;81.48
25232;BME280;13176;51.140;6.290;2023-02-13T09:09:21;102759.25;;;8.84;81.68
25232;BME280;13176;51.140;6.290;2023-02-13T09:11:48;102980.91;;;10.21;81.43
25232;BME280;13176;51.140;6.290;2023-02-13T09:14:17;102954.72;;;10.18;81.24
25232;BME280;13176;51.140;6.290;2023-02-13T09:16:43;102958.34;;;10.24;81.79
25232;BME280;13176;51.140;6.290;2023-02-13T09:19:13;102753.16;;;9.16;82.37
25232;BME280;13176;51.140;6.290;2023-02-13T09:21:40;102846.88;;;9.81;82.34
25232;BME280;13176;51.140;6.290;2023-02-13T09:24:12;102767.91;;;9.51;81.85
25232;BME280;13176;51.140;6.290;2023-02-13T09:26:38;102754.81;;;9.48;82.19
25232;BME280;13176;51.140;6.290;2023-02-13T09:29:05;102986.66;;;10.80;81.51
25232;BME280;13176;51.140;6.290;2023-02-13T09:31:32;102755.94;;;9.59;81.39
25232;BME280;13176;51.140;6.290;2023-02-13T09:34:01;102878.03;;;10.48;81.09
25232;BME280;13176;51.140;6.290;2023-02-13T09:36:28;102746.09;;;9.83;80.86
25232;BME280;13176;51.140;6.290;2023-02-13T09:38:59;102829.91;;;10.36;79.75
25232;BME280;13176;51.140;6.290;2023-02-13T09:41:35;102846.78;;;10.51;79.78
25232;BME280;13176;51.140;6.290;2023-02-13T09:44:36;102898.94;;;10.90;79.38
25232;BME280;13176;51.140;6.290;2023-02-13T09:47:33;102991.50;;;11.45;79.31
25232;BME280;13176;51.140;6.290;2023-02-13T09:50:23;102965.31;;;11.42;78.17
25232;BME280;13176;51.140;6.290;2023-02-13T09:52:54;102794.44;;;10.45;77.58
25232;BME280;13176;51.140;6.290;2023-02-13T09:55:46;102979.78;;;11.68;76.77
25232;BME280;13176;51.140;6.290;2023-02-13T09:58:31;102987.00;;;11.81;76.53
25232;BME280;13176;51.140;6.290;2023-02-13T10:01:04;102846.09;;;11.04;76.13
25232;BME280;13176;51.140;6.290;2023-02-13T10:03:45;102759.94;;;10.60;76.11
25232;BME280;13176;51.140;6.290;2023-02-13T10:06:25;102873.59;;;11.30;75.16
25232;BME280;13176;51.140;6.290;2023-02-13T10:09:12;102998.13;;;12.17;75.42
25232;BME280;13176;51.140;6.290;2023-02-13T10:14:57;102991.50;;;12.40;74.96
25232;BME280;13176;51.140;6.290;2023-02-13T10:20:24;102995.28;;;12.56;73.76
25232;BME280;13176;51.140;6.290;2023-02-13T10:23:44;102951.38;;;12.41;73.24
25232;BME280;13176;51.140;6.290;2023-02-13T10:25:59;103002.53;;;12.75;73.84
25232;BME280;13176;51.140;6.290;2023-02-13T10:28:33;102995.75;;;12.88;73.21
25232;BME280;13176;51.140;6.290;2023-02-13T10:31:07;102995.94;;;12.98;72.65
25232;BME280;13176;51.140;6.290;2023-02-13T10:33:42;102986.34;;;13.02;71.68
25232;BME280;13176;51.140;6.290;2023-02-13T10:36:17;102949.72;;;13.06;72.61
25232;BME280;13176;51.140;6.290;2023-02-13T10:38:53;102984.69;;;13.82;71.98
25232;BME280;13176;51.140;6.290;2023-02-13T10:52:40;102966.44;;;21.32;44.13
25232;BME280;13176;51.140;6.290;2023-02-13T10:58:52;102964.16;;;22.27;40.77
25232;BME280;13176;51.140;6.290;2023-02-13T11:04:10;102956.41;;;23.17;38.37
25232;BME280;13176;51.140;6.290;2023-02-13T11:06:42;102948.38;;;23.46;37.52
25232;BME280;13176;51.140;6.290;2023-02-13T11:09:10;102905.00;;;23.68;37.05
25232;BME280;13176;51.140;6.290;2023-02-13T11:11:42;102901.66;;;23.04;38.21
25232;BME280;13176;51.140;6.290;2023-02-13T11:16:48;102939.19;;;23.56;36.89
25232;BME280;13176;51.140;6.290;2023-02-13T11:19:21;102898.66;;;22.87;38.45
25232;BME280;13176;51.140;6.290;2023-02-13T11:21:54;102933.94;;;23.53;37.73
25232;BME280;13176;51.140;6.290;2023-02-13T11:24:23;102932.56;;;23.40;37.80
25232;BME280;13176;51.140;6.290;2023-02-13T11:26:53;102868.69;;;23.10;37.30
25232;BME280;13176;51.140;6.290;2023-02-13T11:29:30;102852.56;;;23.14;36.70
25232;BME280;13176;51.140;6.290;2023-02-13T11:32:23;102803.38;;;22.66;37.10
25232;BME280;13176;51.140;6.290;2023-02-13T11:34:50;102793.13;;;22.54;37.99
25232;BME280;13176;51.140;6.290;2023-02-13T11:37:29;102911.53;;;23.58;36.96
25232;BME280;13176;51.140;6.290;2023-02-13T11:39:58;102796.69;;;22.53;37.18
25232;BME280;13176;51.140;6.290;2023-02-13T11:42:31;102736.38;;;22.52;36.75
25232;BME280;13176;51.140;6.290;2023-02-13T11:45:19;102908.16;;;23.26;37.14
25232;BME280;13176;51.140;6.290;2023-02-13T11:47:47;102902.22;;;23.44;36.93
25232;BME280;13176;51.140;6.290;2023-02-13T11:50:24;102875.31;;;22.34;37.89
25232;BME280;13176;51.140;6.290;2023-02-13T11:52:55;102842.19;;;22.12;37.83
25232;BME280;13176;51.140;6.290;2023-02-13T11:55:35;102899.97;;;22.73;37.21
25232;BME280;13176;51.140;6.290;2023-02-13T11:58:22;102888.47;;;23.30;36.49
25232;BME280;13176;51.140;6.290;2023-02-13T12:01:07;102880.91;;;22.86;37.86
25232;BME280;13176;51.140;6.290;2023-02-13T12:03:34;102816.59;;;22.40;36.50
25232;BME280;13176;51.140;6.290;2023-02-13T12:06:04;102881.41;;;23.29;37.39
25232;BME280;13176;51.140;6.290;2023-02-13T12:08:34;102806.16;;;22.92;36.63
25232;BME280;13176;51.140;6.290;2023-02-13T12:11:04;102871.25;;;23.40;36.91
25232;BME280;13176;51.140;6.290;2023-02-13T12:13:36;102666.44;;;22.47;36.28
25232;BME280;13176;51.140;6.290;2023-02-13T12:16:10;102867.31;;;23.79;36.55
25232;BME280;13176;51.140;6.290;2023-02-13T12:18:43;102878.50;;;23.64;37.07
25232;BME280;13176;51.140;6.290;2023-02-13T12:26:47;102871.31;;;23.38;37.42
25232;BME280;13176;51.140;6.290;2023-02-13T12:29:54;102846.63;;;21.79;39.17
25232;BME280;13176;51.140;6.290;2023-02-13T12:32:37;102847.78;;;22.34;40.22
25232;BME280;13176;51.140;6.290;2023-02-13T12:35:20;102846.22;;;21.93;40.24
25232;BME280;13176;51.140;6.290;2023-02-13T12:38:19;102856.63;;;22.02;38.68
25232;BME280;13176;51.140;6.290;2023-02-13T12:41:02;102858.84;;;22.52;39.28
25232;BME280;13176;51.140;6.290;2023-02-13T12:48:59;102833.00;;;21.56;41.43
25232;BME280;13176;51.140;6.290;2023-02-13T12:54:45;102833.53;;;21.35;40.65
25232;BME280;13176;51.140;6.290;2023-02-13T12:57:26;102834.44;;;20.96;41.17
25232;BME280;13176;51.140;6.290;2023-02-13T13:08:48;102832.88;;;19.98;45.99
25232;BME280;13176;51.140;6.290;2023-02-13T13:11:48;102836.56;;;19.36;47.10
25232;BME280;13176;51.140;6.290;2023-02-13T13:14:45;102820.09;;;19.16;48.44
25232;BME280;13176;51.140;6.290;2023-02-13T13:17:44;102822.91;;;19.02;49.29
25232;BME280;13176;51.140;6.290;2023-02-13T13:23:07;102696.84;;;17.64;50.21
25232;BME280;13176;51.140;6.290;2023-02-13T13:26:12;102780.91;;;18.06;50.80
25232;BME280;13176;51.140;6.290;2023-02-13T13:28:46;102811.56;;;18.24;51.38
25232;BME280;13176;51.140;6.290;2023-02-13T13:31:15;102809.13;;;18.04;51.58
25232;BME280;13176;51.140;6.290;2023-02-13T13:33:47;102747.91;;;17.63;51.97
25232;BME280;13176;51.140;6.290;2023-02-13T13:41:34;102805.69;;;17.98;52.95
25232;BME280;13176;51.140;6.290;2023-02-13T13:44:13;102809.19;;;17.98;52.99
25232;BME280;13176;51.140;6.290;2023-02-13T13:46:55;102805.84;;;17.81;53.54
25232;BME280;13176;51.140;6.290;2023-02-13T13:49:34;102786.72;;;17.52;52.97
25232;BME280;13176;51.140;6.290;2023-02-13T13:55:00;102782.19;;;17.68;53.62
25232;BME280;13176;51.140;6.290;2023-02-13T14:05:18;102791.19;;;17.47;53.36
25232;BME280;13176;51.140;6.290;2023-02-13T14:07:52;102784.16;;;17.45;53.47
25232;BME280;13176;51.140;6.290;2023-02-13T14:10:58;102799.03;;;17.53;53.80
25232;BME280;13176;51.140;6.290;2023-02-13T14:13:06;102792.09;;;17.43;53.63
25232;BME280;13176;51.140;6.290;2023-02-13T14:31:32;102765.78;;;17.31;54.20
25232;BME280;13176;51.140;6.290;2023-02-13T14:36:33;102757.00;;;17.26;54.03
25232;BME280;13176;51.140;6.290;2023-02-13T14:39:04;102774.63;;;17.21;53.33
25232;BME280;13176;51.140;6.290;2023-02-13T14:44:37;102776.25;;;17.43;54.50
25232;BME280;13176;51.140;6.290;2023-02-13T14:47:19;102768.25;;;17.52;54.56
25232;BME280;13176;51.140;6.290;2023-02-13T14:49:48;102749.88;;;17.40;54.22
25232;BME280;13176;51.140;6.290;2023-02-13T14:52:17;102760.28;;;17.55;54.47
25232;BME280;13176;51.140;6.290;2023-02-13T14:54:47;102749.03;;;17.38;54.52
25232;BME280;13176;51.140;6.290;2023-02-13T14:57:33;102749.94;;;17.34;54.80
25232;BME280;13176;51.140;6.290;2023-02-13T15:00:22;102740.28;;;17.24;54.76
25232;BME280;13176;51.140;6.290;2023-02-13T15:02:54;102744.69;;;17.31;55.06
25232;BME280;13176;51.140;6.290;2023-02-13T15:05:32;102512.66;;;16.07;54.67
25232;BME280;13176;51.140;6.290;2023-02-13T15:08:15;102742.91;;;17.33;54.45
25232;BME280;13176;51.140;6.290;2023-02-13T15:10:51;102772.78;;;17.38;55.36
25232;BME280;13176;51.140;6.290;2023-02-13T15:13:24;102762.16;;;17.47;55.07
25232;BME280;13176;51.140;6.290;2023-02-13T15:15:58;102749.91;;;17.37;55.39
25232;BME280;13176;51.140;6.290;2023-02-13T15:18:29;102748.13;;;17.39;54.71
25232;BME280;13176;51.140;6.290;2023-02-13T15:20:58;102667.53;;;16.97;55.20